sensor_id;sensor_type;location;lat;lon;timestamp;pressure;altitude;pressure_sealevel;temperature;humidity
28683;BME280;15862;43.062;25.626;2022-11-06T00:01:07;99625.28;;;18.19;69.38
28683;BME280;15862;43.062;25.626;2022-11-06T00:03:34;99624.00;;;18.07;71.20
28683;BME280;15862;43.062;25.626;2022-11-06T00:06:05;99621.22;;;18.08;72.34
28683;BME280;15862;43.062;25.626;2022-11-06T00:08:49;99631.53;;;17.94;73.93
28683;BME280;15862;43.062;25.626;2022-11-06T00:11:15;99619.63;;;17.83;75.42
28683;BME280;15862;43.062;25.626;2022-11-06T00:13:42;99628.13;;;17.77;76.14
28683;BME280;15862;43.062;25.626;2022-11-06T00:16:09;99623.22;;;17.74;76.69
28683;BME280;15862;43.062;25.626;2022-11-06T00:18:36;99628.63;;;17.73;76.88
28683;BME280;15862;43.062;25.626;2022-11-06T00:21:16;99603.28;;;17.73;76.76
28683;BME280;15862;43.062;25.626;2022-11-06T00:23:43;99620.94;;;17.79;76.85
28683;BME280;15862;43.062;25.626;2022-11-06T00:26:12;99612.75;;;17.82;76.55
28683;BME280;15862;43.062;25.626;2022-11-06T00:28:38;99615.38;;;17.82;76.94
28683;BME280;15862;43.062;25.626;2022-11-06T00:31:10;99620.13;;;17.79;77.34
28683;BME280;15862;43.062;25.626;2022-11-06T00:33:37;99610.81;;;17.68;77.41
28683;BME280;15862;43.062;25.626;2022-11-06T00:36:04;99622.91;;;17.77;78.37
28683;BME280;15862;43.062;25.626;2022-11-06T00:38:31;99633.38;;;17.69;78.78
28683;BME280;15862;43.062;25.626;2022-11-06T00:40:56;99621.44;;;17.59;79.56
28683;BME280;15862;43.062;25.626;2022-11-06T00:43:25;99632.06;;;17.58;81.57
28683;BME280;15862;43.062;25.626;2022-11-06T00:45:51;99617.00;;;17.52;81.33
28683;BME280;15862;43.062;25.626;2022-11-06T00:48:16;99626.84;;;17.58;81.82
28683;BME280;15862;43.062;25.626;2022-11-06T00:50:41;99627.47;;;17.52;83.47
28683;BME280;15862;43.062;25.626;2022-11-06T00:53:07;99628.78;;;17.56;83.75
28683;BME280;15862;43.062;25.626;2022-11-06T00:55:32;99635.97;;;17.54;84.01
28683;BME280;15862;43.062;25.626;2022-11-06T00:57:58;99633.34;;;17.46;84.69
28683;BME280;15862;43.062;25.626;2022-11-06T01:00:23;99638.91;;;17.43;85.14
28683;BME280;15862;43.062;25.626;2022-11-06T01:02:48;99638.56;;;17.46;85.23
28683;BME280;15862;43.062;25.626;2022-11-06T01:05:14;99641.03;;;17.39;86.15
28683;BME280;15862;43.062;25.626;2022-11-06T01:07:40;99637.59;;;17.39;86.40
28683;BME280;15862;43.062;25.626;2022-11-06T01:10:06;99632.84;;;17.42;86.53
28683;BME280;15862;43.062;25.626;2022-11-06T01:12:33;99604.94;;;17.35;86.31
28683;BME280;15862;43.062;25.626;2022-11-06T01:14:59;99631.06;;;17.35;86.89
28683;BME280;15862;43.062;25.626;2022-11-06T01:17:25;99639.16;;;17.24;88.40
28683;BME280;15862;43.062;25.626;2022-11-06T01:19:50;99623.06;;;17.36;87.33
28683;BME280;15862;43.062;25.626;2022-11-06T01:22:16;99621.94;;;17.55;85.63
28683;BME280;15862;43.062;25.626;2022-11-06T01:24:41;99626.50;;;17.45;86.09
28683;BME280;15862;43.062;25.626;2022-11-06T01:27:07;99599.72;;;17.35;86.14
28683;BME280;15862;43.062;25.626;2022-11-06T01:29:33;99623.22;;;17.35;86.96
28683;BME280;15862;43.062;25.626;2022-11-06T01:31:59;99635.94;;;17.30;87.52
28683;BME280;15862;43.062;25.626;2022-11-06T01:34:24;99630.19;;;17.26;87.88
28683;BME280;15862;43.062;25.626;2022-11-06T01:36:50;99638.53;;;17.22;87.96
28683;BME280;15862;43.062;25.626;2022-11-06T01:39:16;99592.63;;;16.95;87.51
28683;BME280;15862;43.062;25.626;2022-11-06T01:41:48;99638.53;;;17.14;87.62
28683;BME280;15862;43.062;25.626;2022-11-06T01:47:01;99638.78;;;16.95;88.59
28683;BME280;15862;43.062;25.626;2022-11-06T01:49:30;99629.94;;;16.80;89.78
28683;BME280;15862;43.062;25.626;2022-11-06T01:52:03;99632.47;;;16.64;90.99
28683;BME280;15862;43.062;25.626;2022-11-06T01:54:30;99633.75;;;16.52;90.93
28683;BME280;15862;43.062;25.626;2022-11-06T01:56:58;99638.91;;;16.44;90.95
28683;BME280;15862;43.062;25.626;2022-11-06T01:59:28;99620.94;;;16.33;91.57
28683;BME280;15862;43.062;25.626;2022-11-06T02:01:55;99645.31;;;16.24;92.71
28683;BME280;15862;43.062;25.626;2022-11-06T02:04:26;99650.25;;;16.10;94.91
28683;BME280;15862;43.062;25.626;2022-11-06T02:06:52;99658.03;;;16.02;95.37
28683;BME280;15862;43.062;25.626;2022-11-06T02:09:18;99658.94;;;15.93;96.00
28683;BME280;15862;43.062;25.626;2022-11-06T02:12:11;99657.53;;;15.81;97.11
28683;BME280;15862;43.062;25.626;2022-11-06T02:17:23;99656.00;;;15.53;99.43
28683;BME280;15862;43.062;25.626;2022-11-06T02:20:00;99661.91;;;15.38;100.00
28683;BME280;15862;43.062;25.626;2022-11-06T02:27:31;99666.97;;;14.95;100.00
28683;BME280;15862;43.062;25.626;2022-11-06T02:30:13;99660.50;;;14.72;100.00
28683;BME280;15862;43.062;25.626;2022-11-06T02:32:43;99670.66;;;14.66;100.00
28683;BME280;15862;43.062;25.626;2022-11-06T02:35:27;99672.72;;;14.62;100.00
28683;BME280;15862;43.062;25.626;2022-11-06T02:38:02;99673.31;;;14.56;100.00
28683;BME280;15862;43.062;25.626;2022-11-06T02:40:31;99672.50;;;14.47;100.00
28683;BME280;15862;43.062;25.626;2022-11-06T02:43:02;99671.56;;;14.48;100.00
28683;BME280;15862;43.062;25.626;2022-11-06T02:45:30;99676.94;;;14.37;100.00
28683;BME280;15862;43.062;25.626;2022-11-06T02:47:58;99676.13;;;14.27;100.00
28683;BME280;15862;43.062;25.626;2022-11-06T02:50:36;99667.41;;;14.09;100.00
28683;BME280;15862;43.062;25.626;2022-11-06T02:53:05;99677.28;;;14.15;100.00
28683;BME280;15862;43.062;25.626;2022-11-06T02:55:47;99672.06;;;14.05;100.00
28683;BME280;15862;43.062;25.626;2022-11-06T02:58:28;99676.16;;;14.08;100.00
28683;BME280;15862;43.062;25.626;2022-11-06T03:01:02;99683.28;;;13.96;100.00
28683;BME280;15862;43.062;25.626;2022-11-06T03:03:32;99687.38;;;13.99;100.00
28683;BME280;15862;43.062;25.626;2022-11-06T03:06:06;99698.19;;;13.94;100.00
28683;BME280;15862;43.062;25.626;2022-11-06T03:08:45;99693.94;;;13.93;100.00
28683;BME280;15862;43.062;25.626;2022-11-06T03:14:06;99682.50;;;13.77;100.00
28683;BME280;15862;43.062;25.626;2022-11-06T03:27:11;99702.19;;;13.61;100.00
28683;BME280;15862;43.062;25.626;2022-11-06T03:29:47;99707.91;;;13.45;100.00
28683;BME280;15862;43.062;25.626;2022-11-06T03:34:54;99723.06;;;13.40;100.00
28683;BME280;15862;43.062;25.626;2022-11-06T03:40:19;99730.38;;;13.16;100.00
28683;BME280;15862;43.062;25.626;2022-11-06T03:42:48;99737.50;;;13.14;100.00
28683;BME280;15862;43.062;25.626;2022-11-06T03:45:19;99739.47;;;13.01;100.00
28683;BME280;15862;43.062;25.626;2022-11-06T03:48:07;99742.75;;;12.94;100.00
28683;BME280;15862;43.062;25.626;2022-11-06T03:51:04;99744.56;;;12.83;100.00
28683;BME280;15862;43.062;25.626;2022-11-06T03:53:37;99735.50;;;12.68;100.00
28683;BME280;15862;43.062;25.626;2022-11-06T03:56:09;99746.41;;;12.62;100.00
28683;BME280;15862;43.062;25.626;2022-11-06T03:58:38;99736.00;;;12.52;100.00
28683;BME280;15862;43.062;25.626;2022-11-06T04:01:07;99736.00;;;12.52;100.00
28683;BME280;15862;43.062;25.626;2022-11-06T04:03:43;99751.34;;;12.44;100.00
28683;BME280;15862;43.062;25.626;2022-11-06T04:06:26;99752.34;;;12.32;100.00
28683;BME280;15862;43.062;25.626;2022-11-06T04:08:57;99751.34;;;12.24;100.00
28683;BME280;15862;43.062;25.626;2022-11-06T04:11:44;99758.94;;;12.16;100.00
28683;BME280;15862;43.062;25.626;2022-11-06T04:14:29;99756.66;;;12.02;100.00
28683;BME280;15862;43.062;25.626;2022-11-06T04:17:00;99753.13;;;12.03;100.00
28683;BME280;15862;43.062;25.626;2022-11-06T04:19:26;99730.63;;;11.83;100.00
28683;BME280;15862;43.062;25.626;2022-11-06T04:31:30;99766.09;;;11.72;100.00
28683;BME280;15862;43.062;25.626;2022-11-06T04:34:16;99770.56;;;11.70;100.00
28683;BME280;15862;43.062;25.626;2022-11-06T04:36:45;99768.84;;;11.59;100.00
28683;BME280;15862;43.062;25.626;2022-11-06T04:42:08;99782.72;;;11.37;100.00
28683;BME280;15862;43.062;25.626;2022-11-06T04:44:38;99776.84;;;11.35;100.00
28683;BME280;15862;43.062;25.626;2022-11-06T04:47:07;99767.59;;;11.21;100.00
28683;BME280;15862;43.062;25.626;2022-11-06T04:49:36;99752.94;;;11.11;100.00
28683;BME280;15862;43.062;25.626;2022-11-06T04:52:06;99781.38;;;11.11;100.00
28683;BME280;15862;43.062;25.626;2022-11-06T04:54:34;99785.13;;;11.18;100.00
28683;BME280;15862;43.062;25.626;2022-11-06T04:57:01;99767.16;;;11.05;100.00
28683;BME280;15862;43.062;25.626;2022-11-06T04:59:27;99783.94;;;11.11;100.00
28683;BME280;15862;43.062;25.626;2022-11-06T05:01:54;99782.06;;;11.02;100.00
28683;BME280;15862;43.062;25.626;2022-11-06T05:04:20;99787.25;;;11.02;100.00
28683;BME280;15862;43.062;25.626;2022-11-06T05:06:45;99793.34;;;11.01;100.00
28683;BME280;15862;43.062;25.626;2022-11-06T05:09:11;99794.28;;;11.00;100.00
28683;BME280;15862;43.062;25.626;2022-11-06T05:11:36;99791.81;;;10.98;100.00
28683;BME280;15862;43.062;25.626;2022-11-06T05:14:02;99796.16;;;10.98;100.00
28683;BME280;15862;43.062;25.626;2022-11-06T05:16:28;99809.56;;;11.03;100.00
28683;BME280;15862;43.062;25.626;2022-11-06T05:18:54;99796.41;;;10.95;100.00
28683;BME280;15862;43.062;25.626;2022-11-06T05:21:19;99808.03;;;11.00;100.00
28683;BME280;15862;43.062;25.626;2022-11-06T05:24:03;99813.31;;;10.99;100.00
28683;BME280;15862;43.062;25.626;2022-11-06T05:26:29;99816.16;;;10.96;100.00
28683;BME280;15862;43.062;25.626;2022-11-06T05:28:54;99818.94;;;10.93;100.00
28683;BME280;15862;43.062;25.626;2022-11-06T05:31:20;99815.44;;;10.94;100.00
28683;BME280;15862;43.062;25.626;2022-11-06T05:33:45;99828.59;;;11.02;100.00
28683;BME280;15862;43.062;25.626;2022-11-06T05:36:11;99828.47;;;11.03;100.00
28683;BME280;15862;43.062;25.626;2022-11-06T05:38:37;99825.66;;;11.06;100.00
28683;BME280;15862;43.062;25.626;2022-11-06T05:41:02;99832.81;;;11.14;100.00
28683;BME280;15862;43.062;25.626;2022-11-06T05:43:27;99834.72;;;11.12;100.00
28683;BME280;15862;43.062;25.626;2022-11-06T05:45:53;99839.25;;;11.30;100.00
28683;BME280;15862;43.062;25.626;2022-11-06T05:48:18;99833.06;;;11.33;100.00
28683;BME280;15862;43.062;25.626;2022-11-06T05:50:44;99828.78;;;11.42;100.00
28683;BME280;15862;43.062;25.626;2022-11-06T05:53:09;99800.69;;;11.38;100.00
28683;BME280;15862;43.062;25.626;2022-11-06T05:55:35;99834.19;;;11.72;100.00
28683;BME280;15862;43.062;25.626;2022-11-06T05:58:00;99850.50;;;11.95;100.00
28683;BME280;15862;43.062;25.626;2022-11-06T06:00:25;99844.91;;;12.10;100.00
28683;BME280;15862;43.062;25.626;2022-11-06T06:02:51;99845.41;;;12.24;100.00
28683;BME280;15862;43.062;25.626;2022-11-06T06:05:16;99844.09;;;12.30;100.00
28683;BME280;15862;43.062;25.626;2022-11-06T06:07:42;99844.88;;;12.41;100.00
28683;BME280;15862;43.062;25.626;2022-11-06T06:10:08;99823.53;;;12.49;100.00
28683;BME280;15862;43.062;25.626;2022-11-06T06:12:33;99839.75;;;12.71;100.00
28683;BME280;15862;43.062;25.626;2022-11-06T06:14:59;99824.75;;;12.75;100.00
28683;BME280;15862;43.062;25.626;2022-11-06T06:17:25;99830.38;;;12.80;100.00
28683;BME280;15862;43.062;25.626;2022-11-06T06:19:51;99832.00;;;12.92;100.00
28683;BME280;15862;43.062;25.626;2022-11-06T06:22:17;99840.19;;;12.97;100.00
28683;BME280;15862;43.062;25.626;2022-11-06T06:24:42;99842.31;;;13.12;100.00
28683;BME280;15862;43.062;25.626;2022-11-06T06:27:08;99847.56;;;13.21;100.00
28683;BME280;15862;43.062;25.626;2022-11-06T06:29:33;99859.47;;;13.33;100.00
28683;BME280;15862;43.062;25.626;2022-11-06T06:31:59;99860.16;;;13.35;100.00
28683;BME280;15862;43.062;25.626;2022-11-06T06:34:24;99851.84;;;13.32;100.00
28683;BME280;15862;43.062;25.626;2022-11-06T06:36:51;99840.94;;;13.08;100.00
28683;BME280;15862;43.062;25.626;2022-11-06T06:39:17;99854.63;;;13.19;100.00
28683;BME280;15862;43.062;25.626;2022-11-06T06:41:46;99862.06;;;13.33;100.00
28683;BME280;15862;43.062;25.626;2022-11-06T06:44:12;99869.63;;;13.46;100.00
28683;BME280;15862;43.062;25.626;2022-11-06T06:46:38;99866.91;;;13.57;100.00
28683;BME280;15862;43.062;25.626;2022-11-06T06:49:03;99871.34;;;13.75;100.00
28683;BME280;15862;43.062;25.626;2022-11-06T06:51:29;99864.28;;;13.96;100.00
28683;BME280;15862;43.062;25.626;2022-11-06T06:53:54;99846.78;;;14.07;100.00
28683;BME280;15862;43.062;25.626;2022-11-06T06:56:20;99856.84;;;14.31;100.00
28683;BME280;15862;43.062;25.626;2022-11-06T06:58:46;99865.31;;;14.42;100.00
28683;BME280;15862;43.062;25.626;2022-11-06T07:01:11;99867.06;;;14.42;100.00
28683;BME280;15862;43.062;25.626;2022-11-06T07:03:37;99870.34;;;14.53;100.00
28683;BME280;15862;43.062;25.626;2022-11-06T07:06:04;99876.63;;;14.69;100.00
28683;BME280;15862;43.062;25.626;2022-11-06T07:08:30;99876.47;;;14.80;100.00
28683;BME280;15862;43.062;25.626;2022-11-06T07:11:06;99875.19;;;14.94;100.00
28683;BME280;15862;43.062;25.626;2022-11-06T07:13:33;99883.41;;;15.08;100.00
28683;BME280;15862;43.062;25.626;2022-11-06T07:16:01;99880.47;;;15.21;100.00
28683;BME280;15862;43.062;25.626;2022-11-06T07:18:27;99874.53;;;15.37;100.00
28683;BME280;15862;43.062;25.626;2022-11-06T07:20:52;99860.81;;;15.45;100.00
28683;BME280;15862;43.062;25.626;2022-11-06T07:23:18;99881.28;;;15.67;100.00
28683;BME280;15862;43.062;25.626;2022-11-06T07:25:44;99881.03;;;15.87;100.00
28683;BME280;15862;43.062;25.626;2022-11-06T07:28:09;99877.84;;;15.93;100.00
28683;BME280;15862;43.062;25.626;2022-11-06T07:30:35;99888.94;;;16.12;100.00
28683;BME280;15862;43.062;25.626;2022-11-06T07:33:01;99882.53;;;16.24;100.00
28683;BME280;15862;43.062;25.626;2022-11-06T07:35:27;99887.25;;;16.38;100.00
28683;BME280;15862;43.062;25.626;2022-11-06T07:37:53;99884.81;;;16.54;98.85
28683;BME280;15862;43.062;25.626;2022-11-06T07:40:18;99893.72;;;16.69;98.43
28683;BME280;15862;43.062;25.626;2022-11-06T07:42:44;99892.88;;;16.86;96.80
28683;BME280;15862;43.062;25.626;2022-11-06T07:45:09;99897.34;;;16.93;96.50
28683;BME280;15862;43.062;25.626;2022-11-06T07:47:35;99889.75;;;17.08;95.44
28683;BME280;15862;43.062;25.626;2022-11-06T07:50:00;99885.59;;;17.23;94.29
28683;BME280;15862;43.062;25.626;2022-11-06T07:52:25;99886.09;;;17.26;93.66
28683;BME280;15862;43.062;25.626;2022-11-06T07:54:51;99879.31;;;17.08;95.21
28683;BME280;15862;43.062;25.626;2022-11-06T07:57:16;99887.03;;;17.35;94.58
28683;BME280;15862;43.062;25.626;2022-11-06T07:59:42;99892.66;;;17.56;92.87
28683;BME280;15862;43.062;25.626;2022-11-06T08:02:12;99890.47;;;17.76;90.73
28683;BME280;15862;43.062;25.626;2022-11-06T08:04:38;99886.59;;;17.96;89.24
28683;BME280;15862;43.062;25.626;2022-11-06T08:07:04;99892.03;;;18.11;88.00
28683;BME280;15862;43.062;25.626;2022-11-06T08:09:29;99892.88;;;18.19;86.41
28683;BME280;15862;43.062;25.626;2022-11-06T08:11:55;99893.59;;;18.37;85.51
28683;BME280;15862;43.062;25.626;2022-11-06T08:14:20;99889.66;;;18.57;84.72
28683;BME280;15862;43.062;25.626;2022-11-06T08:16:46;99888.03;;;18.64;83.26
28683;BME280;15862;43.062;25.626;2022-11-06T08:19:11;99885.09;;;18.75;82.48
28683;BME280;15862;43.062;25.626;2022-11-06T08:21:37;99881.81;;;18.97;80.45
28683;BME280;15862;43.062;25.626;2022-11-06T08:24:03;99891.28;;;19.21;79.78
28683;BME280;15862;43.062;25.626;2022-11-06T08:26:29;99895.13;;;19.41;78.33
28683;BME280;15862;43.062;25.626;2022-11-06T08:28:55;99892.50;;;19.49;77.40
28683;BME280;15862;43.062;25.626;2022-11-06T08:31:22;99892.13;;;19.68;75.86
28683;BME280;15862;43.062;25.626;2022-11-06T08:33:48;99879.25;;;19.81;74.65
28683;BME280;15862;43.062;25.626;2022-11-06T08:36:14;99877.06;;;20.00;73.74
28683;BME280;15862;43.062;25.626;2022-11-06T08:38:39;99887.94;;;20.20;72.79
28683;BME280;15862;43.062;25.626;2022-11-06T08:41:11;99892.31;;;20.27;72.58
28683;BME280;15862;43.062;25.626;2022-11-06T08:43:37;99892.84;;;20.45;70.76
28683;BME280;15862;43.062;25.626;2022-11-06T08:46:04;99885.53;;;20.33;69.91
28683;BME280;15862;43.062;25.626;2022-11-06T08:48:30;99901.59;;;20.60;68.92
28683;BME280;15862;43.062;25.626;2022-11-06T08:50:55;99899.97;;;20.81;67.56
28683;BME280;15862;43.062;25.626;2022-11-06T08:53:21;99891.81;;;20.91;66.71
28683;BME280;15862;43.062;25.626;2022-11-06T08:55:46;99875.84;;;20.78;65.90
28683;BME280;15862;43.062;25.626;2022-11-06T08:58:12;99898.69;;;21.14;65.29
28683;BME280;15862;43.062;25.626;2022-11-06T09:00:38;99899.22;;;21.24;64.11
28683;BME280;15862;43.062;25.626;2022-11-06T09:03:10;99901.94;;;21.45;63.42
28683;BME280;15862;43.062;25.626;2022-11-06T09:05:38;99886.38;;;21.58;62.10
28683;BME280;15862;43.062;25.626;2022-11-06T09:08:04;99894.84;;;21.89;61.69
28683;BME280;15862;43.062;25.626;2022-11-06T09:10:29;99895.16;;;22.15;59.59
28683;BME280;15862;43.062;25.626;2022-11-06T09:12:57;99887.63;;;22.12;59.73
28683;BME280;15862;43.062;25.626;2022-11-06T09:15:22;99889.59;;;22.24;58.62
28683;BME280;15862;43.062;25.626;2022-11-06T09:17:49;99888.72;;;22.17;58.40
28683;BME280;15862;43.062;25.626;2022-11-06T09:20:17;99895.03;;;22.02;59.36
28683;BME280;15862;43.062;25.626;2022-11-06T09:22:45;99890.34;;;21.83;60.68
28683;BME280;15862;43.062;25.626;2022-11-06T09:25:11;99874.75;;;21.81;61.37
28683;BME280;15862;43.062;25.626;2022-11-06T09:27:50;99886.97;;;21.89;61.58
28683;BME280;15862;43.062;25.626;2022-11-06T09:30:18;99880.44;;;21.85;61.80
28683;BME280;15862;43.062;25.626;2022-11-06T09:32:51;99882.63;;;21.81;61.61
28683;BME280;15862;43.062;25.626;2022-11-06T09:35:18;99885.38;;;21.73;62.66
28683;BME280;15862;43.062;25.626;2022-11-06T09:37:44;99883.72;;;21.72;61.89
28683;BME280;15862;43.062;25.626;2022-11-06T09:40:24;99886.16;;;21.74;62.38
28683;BME280;15862;43.062;25.626;2022-11-06T09:45:26;99873.09;;;21.66;63.94
28683;BME280;15862;43.062;25.626;2022-11-06T09:48:04;99871.38;;;21.73;63.90
28683;BME280;15862;43.062;25.626;2022-11-06T09:50:51;99872.84;;;21.75;64.14
28683;BME280;15862;43.062;25.626;2022-11-06T09:53:39;99875.28;;;21.77;64.20
28683;BME280;15862;43.062;25.626;2022-11-06T09:56:09;99874.28;;;21.78;63.76
28683;BME280;15862;43.062;25.626;2022-11-06T09:58:39;99870.16;;;21.55;64.82
28683;BME280;15862;43.062;25.626;2022-11-06T10:03:42;99869.22;;;21.62;66.24
28683;BME280;15862;43.062;25.626;2022-11-06T10:06:09;99871.28;;;21.81;65.12
28683;BME280;15862;43.062;25.626;2022-11-06T10:08:34;99869.72;;;22.01;63.03
28683;BME280;15862;43.062;25.626;2022-11-06T10:13:52;99857.09;;;22.52;59.58
28683;BME280;15862;43.062;25.626;2022-11-06T10:26:54;99865.16;;;22.99;56.42
28683;BME280;15862;43.062;25.626;2022-11-06T10:29:30;99845.63;;;22.87;56.30
28683;BME280;15862;43.062;25.626;2022-11-06T10:35:24;99855.44;;;22.72;52.90
28683;BME280;15862;43.062;25.626;2022-11-06T10:37:57;99850.47;;;22.84;52.25
28683;BME280;15862;43.062;25.626;2022-11-06T10:40:27;99852.03;;;22.78;51.96
28683;BME280;15862;43.062;25.626;2022-11-06T10:43:06;99850.03;;;22.80;51.78
28683;BME280;15862;43.062;25.626;2022-11-06T10:45:34;99845.38;;;22.55;52.93
28683;BME280;15862;43.062;25.626;2022-11-06T10:48:23;99845.97;;;22.57;52.79
28683;BME280;15862;43.062;25.626;2022-11-06T10:56:24;99838.41;;;22.47;52.83
28683;BME280;15862;43.062;25.626;2022-11-06T10:58:52;99836.59;;;22.48;52.40
28683;BME280;15862;43.062;25.626;2022-11-06T11:01:18;99832.94;;;22.70;52.10
28683;BME280;15862;43.062;25.626;2022-11-06T11:03:45;99835.00;;;22.53;51.16
28683;BME280;15862;43.062;25.626;2022-11-06T11:06:11;99821.78;;;22.47;50.88
28683;BME280;15862;43.062;25.626;2022-11-06T11:08:38;99831.13;;;22.49;50.84
28683;BME280;15862;43.062;25.626;2022-11-06T11:13:47;99834.69;;;22.42;50.45
28683;BME280;15862;43.062;25.626;2022-11-06T11:16:14;99837.16;;;22.43;51.19
28683;BME280;15862;43.062;25.626;2022-11-06T11:18:43;99817.44;;;22.39;50.46
28683;BME280;15862;43.062;25.626;2022-11-06T11:21:28;99838.25;;;22.55;50.08
28683;BME280;15862;43.062;25.626;2022-11-06T11:26:27;99838.25;;;22.55;49.73
28683;BME280;15862;43.062;25.626;2022-11-06T11:28:56;99831.50;;;22.67;50.30
28683;BME280;15862;43.062;25.626;2022-11-06T11:31:30;99838.41;;;22.47;49.39
28683;BME280;15862;43.062;25.626;2022-11-06T11:33:58;99836.91;;;22.59;49.93
28683;BME280;15862;43.062;25.626;2022-11-06T11:36:24;99842.28;;;22.79;49.77
28683;BME280;15862;43.062;25.626;2022-11-06T11:38:50;99821.19;;;22.72;48.91
28683;BME280;15862;43.062;25.626;2022-11-06T11:43:56;99834.69;;;22.63;49.20
28683;BME280;15862;43.062;25.626;2022-11-06T11:46:22;99834.16;;;22.74;49.57
28683;BME280;15862;43.062;25.626;2022-11-06T11:48:52;99829.28;;;22.71;48.89
28683;BME280;15862;43.062;25.626;2022-11-06T11:56:45;99831.72;;;22.72;48.99
28683;BME280;15862;43.062;25.626;2022-11-06T11:59:21;99828.47;;;22.70;49.14
28683;BME280;15862;43.062;25.626;2022-11-06T12:01:47;99830.31;;;22.76;49.16
28683;BME280;15862;43.062;25.626;2022-11-06T12:04:34;99833.03;;;22.34;50.80
28683;BME280;15862;43.062;25.626;2022-11-06T12:07:02;99832.59;;;22.31;51.48
28683;BME280;15862;43.062;25.626;2022-11-06T12:09:32;99829.28;;;22.29;50.98
28683;BME280;15862;43.062;25.626;2022-11-06T12:12:00;99822.25;;;22.30;50.82
28683;BME280;15862;43.062;25.626;2022-11-06T12:14:34;99814.69;;;22.27;50.58
28683;BME280;15862;43.062;25.626;2022-11-06T12:17:01;99827.38;;;22.37;50.13
28683;BME280;15862;43.062;25.626;2022-11-06T12:19:31;99825.78;;;22.43;50.71
28683;BME280;15862;43.062;25.626;2022-11-06T12:22:04;99825.84;;;22.49;50.96
28683;BME280;15862;43.062;25.626;2022-11-06T12:24:55;99825.66;;;22.51;51.26
28683;BME280;15862;43.062;25.626;2022-11-06T12:27:30;99830.63;;;22.39;52.07
28683;BME280;15862;43.062;25.626;2022-11-06T12:35:33;99844.38;;;22.00;52.98
28683;BME280;15862;43.062;25.626;2022-11-06T12:38:10;99843.31;;;21.94;53.47
28683;BME280;15862;43.062;25.626;2022-11-06T12:40:38;99841.78;;;21.85;53.70
28683;BME280;15862;43.062;25.626;2022-11-06T12:57:08;99844.81;;;22.03;53.77
28683;BME280;15862;43.062;25.626;2022-11-06T13:02:27;99856.16;;;22.04;53.83
28683;BME280;15862;43.062;25.626;2022-11-06T13:10:32;99853.16;;;22.07;53.88
28683;BME280;15862;43.062;25.626;2022-11-06T13:13:17;99835.09;;;22.04;53.97
28683;BME280;15862;43.062;25.626;2022-11-06T13:21:01;99848.53;;;22.09;55.02
28683;BME280;15862;43.062;25.626;2022-11-06T13:23:34;99852.78;;;22.10;55.60
28683;BME280;15862;43.062;25.626;2022-11-06T13:31:09;99855.66;;;21.94;56.88
28683;BME280;15862;43.062;25.626;2022-11-06T13:33:57;99865.66;;;21.84;56.15
28683;BME280;15862;43.062;25.626;2022-11-06T13:36:25;99858.13;;;21.81;55.83
28683;BME280;15862;43.062;25.626;2022-11-06T13:38:59;99846.09;;;21.72;57.55
28683;BME280;15862;43.062;25.626;2022-11-06T13:41:29;99863.22;;;21.68;58.83
28683;BME280;15862;43.062;25.626;2022-11-06T13:44:03;99864.91;;;21.55;59.56
28683;BME280;15862;43.062;25.626;2022-11-06T14:01:59;99865.84;;;21.10;61.47
28683;BME280;15862;43.062;25.626;2022-11-06T14:07:32;99868.03;;;20.92;63.69
28683;BME280;15862;43.062;25.626;2022-11-06T14:09:58;99871.63;;;20.91;65.00
28683;BME280;15862;43.062;25.626;2022-11-06T14:12:24;99861.28;;;20.76;67.33
28683;BME280;15862;43.062;25.626;2022-11-06T14:14:53;99874.44;;;20.68;68.99
28683;BME280;15862;43.062;25.626;2022-11-06T14:17:37;99865.00;;;20.59;70.82
28683;BME280;15862;43.062;25.626;2022-11-06T14:20:29;99879.56;;;20.61;71.67
28683;BME280;15862;43.062;25.626;2022-11-06T14:26:06;99873.63;;;20.45;71.63
28683;BME280;15862;43.062;25.626;2022-11-06T14:28:37;99869.56;;;20.20;73.93
28683;BME280;15862;43.062;25.626;2022-11-06T14:31:03;99874.16;;;20.18;75.00
28683;BME280;15862;43.062;25.626;2022-11-06T14:36:26;99879.03;;;19.98;77.96
28683;BME280;15862;43.062;25.626;2022-11-06T14:38:53;99868.09;;;19.87;78.72
28683;BME280;15862;43.062;25.626;2022-11-06T14:44:23;99874.41;;;19.62;82.35
28683;BME280;15862;43.062;25.626;2022-11-06T14:46:51;99873.84;;;19.44;85.17
28683;BME280;15862;43.062;25.626;2022-11-06T14:49:26;99873.09;;;19.28;86.34
28683;BME280;15862;43.062;25.626;2022-11-06T14:52:02;99871.16;;;19.06;87.39
28683;BME280;15862;43.062;25.626;2022-11-06T14:54:29;99858.88;;;18.83;90.47
28683;BME280;15862;43.062;25.626;2022-11-06T14:56:55;99852.38;;;18.63;91.54
28683;BME280;15862;43.062;25.626;2022-11-06T14:59:34;99872.31;;;18.48;94.33
28683;BME280;15862;43.062;25.626;2022-11-06T15:05:11;99886.47;;;17.98;97.95
28683;BME280;15862;43.062;25.626;2022-11-06T15:10:04;99878.25;;;17.52;100.00
28683;BME280;15862;43.062;25.626;2022-11-06T15:15:29;99871.66;;;17.32;100.00
28683;BME280;15862;43.062;25.626;2022-11-06T15:17:57;99852.34;;;16.99;100.00
28683;BME280;15862;43.062;25.626;2022-11-06T15:20:26;99884.84;;;17.05;100.00
28683;BME280;15862;43.062;25.626;2022-11-06T15:25:28;99878.75;;;16.71;100.00
28683;BME280;15862;43.062;25.626;2022-11-06T15:28:16;99888.50;;;16.69;100.00
28683;BME280;15862;43.062;25.626;2022-11-06T15:33:31;99895.41;;;16.53;100.00
28683;BME280;15862;43.062;25.626;2022-11-06T15:36:02;99899.63;;;16.36;100.00
28683;BME280;15862;43.062;25.626;2022-11-06T15:38:39;99903.91;;;16.28;100.00